Terminal Aerodrome Forecast
Issued by NWS Mt. Holly, NJ

Home | Current Version | Previous Version | Text Only | Print | Product List | Glossary On
Versions: 1 2 3 4 5 6 7 8 9 10 11 12 13 14 15 16 17 18 19
549
FTUS41 KPHI 180536
TAFTTN
TAF
KTTN 180536Z 1806/1906 05008KT 1SM BR OVC002
      TEMPO 1806/1807 2SM -RA
     FM181300 01007KT 3SM BR VCSH BKN005 OVC015
     FM181600 34009G16KT P6SM BKN025
     FM182200 36006KT P6SM BKN040=

USA.gov is the U.S. government's official web portal to all federal, state and local government web resources and services.